Time;durP1;ratioP1;P1;durP2;ratioP2;P2;SDS_P1;SDS_P2;PMS_P1;PMS_P2;Temp;Humidity;BMP_temperature;BMP_pressure;BME280_temperature;BME280_humidity;BME280_pressure;Samples;Min_cycle;Max_cycle;Signal;HPM_P1;HPM_P2
2022/03/31 00:00:56;;;;;;;;;;;5.40;99.90;;;;;;5045783;28;19913;-80
2022/03/31 00:03:21;;;;;;;;;;;5.40;99.90;;;;;;5052750;28;20316;-80
2022/03/31 00:05:50;;;;;;;;;;;5.30;99.90;;;;;;5026487;28;19927;-80
2022/03/31 00:08:17;;;;;;;;;;;5.30;99.90;;;;;;5042673;28;19925;-80
2022/03/31 00:10:44;;;;;;;;;;;5.20;99.90;;;;;;5035493;28;19913;-80
2022/03/31 00:13:13;;;;;;;;;;;5.20;99.90;;;;;;5032851;28;19932;-80
2022/03/31 00:15:39;;;;;;;;;;;5.20;99.90;;;;;;5023608;28;19921;-80
2022/03/31 00:18:06;;;;;;;;;;;5.20;99.90;;;;;;5049549;28;20438;-79
2022/03/31 00:20:31;;;;;;;;;;;5.20;99.90;;;;;;5047494;28;19923;-80
2022/03/31 00:22:57;;;;;;;;;;;5.20;99.90;;;;;;5035732;28;19920;-80
2022/03/31 00:25:26;;;;;;;;;;;5.20;99.90;;;;;;5042220;28;19920;-80
2022/03/31 00:27:52;;;;;;;;;;;5.20;99.90;;;;;;5039148;28;20011;-79
2022/03/31 00:30:18;;;;;;;;;;;5.20;99.90;;;;;;5048253;28;19917;-79
2022/03/31 00:32:44;;;;;;;;;;;5.20;99.90;;;;;;5047266;28;19991;-80
2022/03/31 00:35:10;;;;;;;;;;;5.20;99.90;;;;;;5045450;28;19923;-80
2022/03/31 00:37:36;;;;;;;;;;;5.20;99.90;;;;;;5026155;28;19972;-80
2022/03/31 00:40:03;;;;;;;;;;;5.20;99.90;;;;;;5050387;28;19913;-80
2022/03/31 00:42:28;;;;;;;;;;;5.10;99.90;;;;;;5043513;28;19956;-80
2022/03/31 00:44:54;;;;;;;;;;;5.10;99.90;;;;;;5049451;28;19948;-79
2022/03/31 00:47:20;;;;;;;;;;;5.00;99.90;;;;;;5040597;28;19924;-79
2022/03/31 00:49:45;;;;;;;;;;;5.00;99.90;;;;;;5054426;28;19913;-80
2022/03/31 00:52:11;;;;;;;;;;;4.90;99.90;;;;;;5049789;28;19917;-80
2022/03/31 00:54:37;;;;;;;;;;;4.80;99.90;;;;;;5066152;28;19917;-80
2022/03/31 00:57:05;;;;;;;;;;;4.80;99.90;;;;;;5051673;28;19939;-79
2022/03/31 00:59:31;;;;;;;;;;;4.80;99.90;;;;;;5050712;28;20498;-80
2022/03/31 01:01:58;;;;;;;;;;;4.70;99.90;;;;;;5048175;28;20419;-80
2022/03/31 01:04:23;;;;;;;;;;;4.70;99.90;;;;;;5059957;28;20260;-80
2022/03/31 01:06:49;;;;;;;;;;;4.70;99.90;;;;;;5071473;22;20402;-83
2022/03/31 01:09:15;;;;;;;;;;;4.70;99.90;;;;;;5056724;28;20414;-83
2022/03/31 01:11:41;;;;;;;;;;;4.60;99.90;;;;;;5068915;28;20416;-83
2022/03/31 01:14:07;;;;;;;;;;;4.60;99.90;;;;;;5059250;28;19951;-83
2022/03/31 01:16:32;;;;;;;;;;;4.50;99.90;;;;;;5063662;28;20289;-83
2022/03/31 01:19:02;;;;;;;;;;;4.50;99.90;;;;;;5056338;28;19920;-83
2022/03/31 01:21:27;;;;;;;;;;;4.50;99.90;;;;;;5060817;28;19916;-83
2022/03/31 01:23:54;;;;;;;;;;;4.50;99.90;;;;;;5030258;28;20274;-83
2022/03/31 01:26:20;;;;;;;;;;;4.50;99.90;;;;;;5055315;28;19955;-83
2022/03/31 01:28:46;;;;;;;;;;;4.40;99.90;;;;;;5063900;28;19946;-83
2022/03/31 01:31:11;;;;;;;;;;;4.40;99.90;;;;;;5061107;28;19922;-83
2022/03/31 01:33:37;;;;;;;;;;;4.40;99.90;;;;;;5064016;28;19913;-83
2022/03/31 01:36:04;;;;;;;;;;;4.40;99.90;;;;;;5052889;28;19909;-83
2022/03/31 01:38:30;;;;;;;;;;;4.30;99.90;;;;;;5051266;28;19944;-83
2022/03/31 01:40:55;;;;;;;;;;;4.30;99.90;;;;;;5052560;28;19967;-83
2022/03/31 01:43:21;;;;;;;;;;;4.20;99.90;;;;;;5064412;28;19924;-83
2022/03/31 01:45:48;;;;;;;;;;;4.20;99.90;;;;;;5059836;28;20061;-83
2022/03/31 01:48:14;;;;;;;;;;;4.20;99.90;;;;;;5046508;28;19959;-82
2022/03/31 01:50:39;;;;;;;;;;;4.20;99.90;;;;;;5066667;28;19959;-83
2022/03/31 01:53:05;;;;;;;;;;;4.20;99.90;;;;;;5056292;28;19928;-83
2022/03/31 01:55:30;;;;;;;;;;;4.20;99.90;;;;;;5062422;28;20011;-83
2022/03/31 01:57:56;;;;;;;;;;;4.20;99.90;;;;;;5064543;28;20393;-83
2022/03/31 02:00:21;;;;;;;;;;;4.20;99.90;;;;;;5061655;28;19935;-83
2022/03/31 02:02:47;;;;;;;;;;;4.20;99.90;;;;;;5062639;28;19920;-83
2022/03/31 02:05:12;;;;;;;;;;;4.30;99.90;;;;;;5060300;28;19923;-84
2022/03/31 02:07:38;;;;;;;;;;;4.40;99.90;;;;;;5065654;28;19925;-83
2022/03/31 02:10:04;;;;;;;;;;;4.40;99.90;;;;;;5055841;28;19920;-83
2022/03/31 02:12:30;;;;;;;;;;;4.40;99.90;;;;;;5065131;28;20324;-83
2022/03/31 02:14:55;;;;;;;;;;;4.40;99.90;;;;;;5058432;28;19920;-83
2022/03/31 02:17:21;;;;;;;;;;;4.50;99.90;;;;;;5061212;28;19917;-83
2022/03/31 02:19:46;;;;;;;;;;;4.50;99.90;;;;;;5057306;28;19920;-83
2022/03/31 02:22:12;;;;;;;;;;;4.50;99.90;;;;;;5064330;28;20253;-83
2022/03/31 02:24:37;;;;;;;;;;;4.50;99.90;;;;;;5061614;28;20096;-83
2022/03/31 02:27:03;;;;;;;;;;;4.60;99.90;;;;;;5061140;28;20403;-83
2022/03/31 02:29:29;;;;;;;;;;;4.60;99.90;;;;;;5060676;28;19925;-83
2022/03/31 02:31:55;;;;;;;;;;;4.70;99.90;;;;;;5056164;28;19913;-83
2022/03/31 02:34:20;;;;;;;;;;;4.60;99.90;;;;;;5061242;28;19948;-83
2022/03/31 02:36:46;;;;;;;;;;;4.70;99.90;;;;;;5060376;28;19971;-83
2022/03/31 02:39:12;;;;;;;;;;;4.70;99.90;;;;;;5067028;28;19913;-83
2022/03/31 02:41:38;;;;;;;;;;;4.80;99.90;;;;;;5052307;28;19927;-83
2022/03/31 02:44:04;;;;;;;;;;;4.80;99.90;;;;;;5062208;28;19996;-83
2022/03/31 02:46:30;;;;;;;;;;;4.80;99.90;;;;;;5068687;28;19913;-83
2022/03/31 02:48:56;;;;;;;;;;;4.90;99.90;;;;;;5062644;28;19927;-83
2022/03/31 02:51:22;;;;;;;;;;;4.90;99.90;;;;;;5052830;28;19916;-82
2022/03/31 02:56:32;;;;;;;;;;;5.00;99.90;;;;;;5053370;28;20312;-83
2022/03/31 02:58:57;;;;;;;;;;;5.00;99.90;;;;;;5069658;28;19917;-83
2022/03/31 03:01:22;;;;;;;;;;;5.00;99.90;;;;;;5057642;28;19917;-84
2022/03/31 03:03:50;;;;;;;;;;;5.00;99.90;;;;;;5055127;28;20381;-83
2022/03/31 03:06:16;;;;;;;;;;;5.00;99.90;;;;;;5064590;28;19952;-83
2022/03/31 03:08:41;;;;;;;;;;;5.00;99.90;;;;;;5062186;28;19959;-83
2022/03/31 03:11:08;;;;;;;;;;;5.00;99.90;;;;;;5054953;28;19916;-83
2022/03/31 03:13:35;;;;;;;;;;;5.00;99.90;;;;;;5061000;28;20495;-83
2022/03/31 03:16:05;;;;;;;;;;;5.00;99.90;;;;;;5057356;28;19927;-83
2022/03/31 03:18:30;;;;;;;;;;;5.00;99.90;;;;;;5058611;28;19955;-83
2022/03/31 03:20:56;;;;;;;;;;;5.00;99.90;;;;;;5061598;28;19971;-83
2022/03/31 03:23:21;;;;;;;;;;;5.00;99.90;;;;;;5047482;28;19921;-83
2022/03/31 03:25:47;;;;;;;;;;;5.00;99.90;;;;;;5063911;28;19966;-83
2022/03/31 03:28:13;;;;;;;;;;;5.00;99.90;;;;;;5064943;28;19927;-83
2022/03/31 03:30:38;;;;;;;;;;;5.00;99.90;;;;;;5056419;28;19974;-83
2022/03/31 03:33:05;;;;;;;;;;;5.00;99.90;;;;;;5061423;28;19953;-83
2022/03/31 03:35:31;;;;;;;;;;;5.00;99.90;;;;;;5068255;28;19916;-83
2022/03/31 03:37:57;;;;;;;;;;;4.90;99.90;;;;;;5053623;28;19917;-82
2022/03/31 03:40:22;;;;;;;;;;;4.90;99.90;;;;;;5053797;28;19917;-83
2022/03/31 03:42:48;;;;;;;;;;;4.90;99.90;;;;;;5054509;28;19913;-83
2022/03/31 03:45:15;;;;;;;;;;;4.90;99.90;;;;;;5053673;28;20392;-83
2022/03/31 03:47:41;;;;;;;;;;;4.90;99.90;;;;;;5067845;28;20003;-83
2022/03/31 03:50:07;;;;;;;;;;;4.80;99.90;;;;;;5052413;28;19924;-83
2022/03/31 03:52:32;;;;;;;;;;;4.80;99.90;;;;;;5069712;28;19912;-83
2022/03/31 03:54:58;;;;;;;;;;;4.80;99.90;;;;;;5053235;28;19921;-83
2022/03/31 03:57:23;;;;;;;;;;;4.80;99.90;;;;;;5052232;28;19924;-83
2022/03/31 03:59:49;;;;;;;;;;;4.80;99.90;;;;;;5070397;28;19916;-83
2022/03/31 04:02:14;;;;;;;;;;;4.80;99.90;;;;;;5071678;28;20014;-83
2022/03/31 04:04:40;;;;;;;;;;;4.80;99.90;;;;;;5061891;28;20352;-83
2022/03/31 04:07:05;;;;;;;;;;;4.70;99.90;;;;;;5073936;28;20362;-83
2022/03/31 04:09:31;;;;;;;;;;;4.70;99.90;;;;;;5071110;28;19923;-82
2022/03/31 04:11:56;;;;;;;;;;;4.80;99.90;;;;;;5078454;28;20576;-82
2022/03/31 04:14:22;;;;;;;;;;;4.80;99.90;;;;;;5076488;28;19913;-82
2022/03/31 04:16:47;;;;;;;;;;;4.80;99.90;;;;;;5072059;28;19917;-83
2022/03/31 04:19:13;;;;;;;;;;;4.80;99.90;;;;;;5062762;28;19920;-82
2022/03/31 04:21:38;;;;;;;;;;;4.80;99.90;;;;;;5046643;28;19920;-84
2022/03/31 04:24:04;;;;;;;;;;;4.80;99.90;;;;;;5064414;28;19913;-83
2022/03/31 04:26:30;;;;;;;;;;;4.80;99.90;;;;;;5069649;28;20456;-83
2022/03/31 04:28:56;;;;;;;;;;;4.80;99.90;;;;;;5054752;28;20011;-83
2022/03/31 04:31:21;;;;;;;;;;;4.80;99.90;;;;;;5072521;28;20373;-83
2022/03/31 04:33:47;;;;;;;;;;;4.80;99.90;;;;;;5067905;28;19960;-83
2022/03/31 04:36:12;;;;;;;;;;;4.80;99.90;;;;;;5071005;28;19921;-83
2022/03/31 04:38:38;;;;;;;;;;;4.80;99.90;;;;;;5061288;28;20257;-82
2022/03/31 04:41:03;;;;;;;;;;;4.80;99.90;;;;;;5064305;28;19917;-83
2022/03/31 04:43:29;;;;;;;;;;;4.80;99.90;;;;;;5063524;28;19964;-83
2022/03/31 04:45:54;;;;;;;;;;;4.80;99.90;;;;;;5061801;28;19916;-83
2022/03/31 04:48:20;;;;;;;;;;;4.70;99.90;;;;;;5065113;28;20235;-83
2022/03/31 04:50:46;;;;;;;;;;;4.70;99.90;;;;;;5066017;28;19924;-85
2022/03/31 04:53:12;;;;;;;;;;;4.70;99.90;;;;;;5057558;28;20408;-82
2022/03/31 04:55:38;;;;;;;;;;;4.70;99.90;;;;;;5068079;28;19916;-83
2022/03/31 04:58:04;;;;;;;;;;;4.60;99.90;;;;;;5064433;28;20430;-82
2022/03/31 05:00:29;;;;;;;;;;;4.70;99.90;;;;;;5062157;28;19960;-83
2022/03/31 05:02:55;;;;;;;;;;;4.70;99.90;;;;;;5055463;28;19917;-85
2022/03/31 05:05:20;;;;;;;;;;;4.70;99.90;;;;;;5070347;28;20049;-85
2022/03/31 05:07:46;;;;;;;;;;;4.70;99.90;;;;;;5054730;28;19925;-84
2022/03/31 05:10:11;;;;;;;;;;;4.70;99.90;;;;;;5062442;28;19921;-84
2022/03/31 05:12:37;;;;;;;;;;;4.70;99.90;;;;;;5061735;28;20340;-82
2022/03/31 05:15:02;;;;;;;;;;;4.70;99.90;;;;;;5071128;28;19920;-82
2022/03/31 05:17:31;;;;;;;;;;;4.70;99.90;;;;;;5065520;28;19917;-82
2022/03/31 05:19:57;;;;;;;;;;;4.70;99.90;;;;;;5059434;28;19964;-85
2022/03/31 05:22:22;;;;;;;;;;;4.80;99.90;;;;;;5060524;28;19983;-85
2022/03/31 05:24:48;;;;;;;;;;;4.80;99.90;;;;;;5054642;28;19917;-84
2022/03/31 05:27:13;;;;;;;;;;;4.80;99.90;;;;;;5070193;28;19985;-82
2022/03/31 05:29:39;;;;;;;;;;;4.80;99.90;;;;;;5064156;28;19924;-82
2022/03/31 05:32:05;;;;;;;;;;;4.80;99.90;;;;;;5058407;28;20454;-84
2022/03/31 05:34:30;;;;;;;;;;;4.90;99.90;;;;;;5065526;28;19924;-84
2022/03/31 05:36:56;;;;;;;;;;;4.90;99.90;;;;;;5060184;28;19940;-84
2022/03/31 05:39:21;;;;;;;;;;;4.90;99.90;;;;;;5075663;28;20012;-84
2022/03/31 05:41:47;;;;;;;;;;;4.90;99.90;;;;;;5056327;28;19916;-82
2022/03/31 05:44:12;;;;;;;;;;;5.00;99.90;;;;;;5050273;28;19916;-82
2022/03/31 05:46:38;;;;;;;;;;;5.00;99.90;;;;;;5061544;28;19978;-85
2022/03/31 05:49:03;;;;;;;;;;;5.00;99.90;;;;;;5066160;28;20007;-85
2022/03/31 05:51:29;;;;;;;;;;;5.00;99.90;;;;;;5062960;28;19928;-85
2022/03/31 05:53:54;;;;;;;;;;;5.00;99.90;;;;;;5070392;28;19917;-82
2022/03/31 05:56:20;;;;;;;;;;;5.10;99.90;;;;;;5062193;28;20365;-85
2022/03/31 05:58:45;;;;;;;;;;;5.10;99.90;;;;;;5060991;28;19921;-85
2022/03/31 06:01:11;;;;;;;;;;;5.10;99.90;;;;;;5064730;28;19956;-85
2022/03/31 06:03:36;;;;;;;;;;;5.10;99.90;;;;;;5061922;28;20377;-85
2022/03/31 06:06:02;;;;;;;;;;;5.20;99.90;;;;;;5067343;28;19924;-82
2022/03/31 06:08:27;;;;;;;;;;;5.20;99.90;;;;;;5056320;28;19921;-85
2022/03/31 06:10:53;;;;;;;;;;;5.20;99.90;;;;;;5065939;28;19921;-82
2022/03/31 06:13:18;;;;;;;;;;;5.30;99.90;;;;;;5059340;28;20362;-85
2022/03/31 06:15:44;;;;;;;;;;;5.30;99.90;;;;;;5064660;28;19963;-85
2022/03/31 06:18:09;;;;;;;;;;;5.40;99.90;;;;;;5062217;28;19920;-84
2022/03/31 06:20:35;;;;;;;;;;;5.40;99.90;;;;;;5058540;28;20385;-84
2022/03/31 06:23:01;;;;;;;;;;;5.40;99.90;;;;;;5053412;28;19996;-84
2022/03/31 06:25:26;;;;;;;;;;;5.40;99.90;;;;;;5055779;28;20381;-82
2022/03/31 06:27:52;;;;;;;;;;;5.50;99.90;;;;;;5064420;28;19916;-82
2022/03/31 06:30:17;;;;;;;;;;;5.60;99.90;;;;;;5053825;28;19917;-84
2022/03/31 06:32:43;;;;;;;;;;;5.70;99.90;;;;;;5067308;28;19946;-85
2022/03/31 06:35:14;;;;;;;;;;;5.80;99.90;;;;;;5056463;28;19927;-85
2022/03/31 06:37:40;;;;;;;;;;;5.90;99.90;;;;;;5066373;28;20400;-83
2022/03/31 06:40:06;;;;;;;;;;;6.00;99.90;;;;;;5060767;28;20300;-83
2022/03/31 06:42:31;;;;;;;;;;;6.10;99.90;;;;;;5067832;28;19923;-83
2022/03/31 06:44:57;;;;;;;;;;;6.10;99.90;;;;;;5062520;28;20345;-83
2022/03/31 06:47:22;;;;;;;;;;;5.90;99.90;;;;;;5058117;28;19928;-83
2022/03/31 06:49:48;;;;;;;;;;;5.90;99.90;;;;;;5063997;28;19943;-83
2022/03/31 06:52:13;;;;;;;;;;;5.80;99.90;;;;;;5070706;28;20003;-83
2022/03/31 06:54:39;;;;;;;;;;;5.80;99.90;;;;;;5061876;28;19913;-83
2022/03/31 06:57:04;;;;;;;;;;;5.80;99.90;;;;;;5058971;28;20337;-83
2022/03/31 06:59:31;;;;;;;;;;;5.80;99.90;;;;;;5059147;28;19913;-83
2022/03/31 07:01:57;;;;;;;;;;;5.80;99.90;;;;;;5056643;28;19920;-83
2022/03/31 07:04:22;;;;;;;;;;;5.80;99.90;;;;;;5055694;28;19970;-83
2022/03/31 07:06:48;;;;;;;;;;;5.80;99.90;;;;;;5072278;22;20040;-87
2022/03/31 07:09:14;;;;;;;;;;;5.90;99.90;;;;;;5017930;28;20444;-88
2022/03/31 07:11:39;;;;;;;;;;;5.90;99.90;;;;;;5046936;28;20012;-87
2022/03/31 07:14:05;;;;;;;;;;;5.90;99.90;;;;;;5031686;28;19912;-87
2022/03/31 07:16:31;;;;;;;;;;;5.80;99.90;;;;;;5010215;28;20366;-88
2022/03/31 07:18:58;;;;;;;;;;;5.70;99.90;;;;;;5019753;28;19959;-88
2022/03/31 07:21:24;;;;;;;;;;;5.70;99.90;;;;;;5029084;28;19909;-88
2022/03/31 07:23:51;;;;;;;;;;;5.70;99.90;;;;;;5023738;28;19913;-88
2022/03/31 07:26:16;;;;;;;;;;;5.70;99.90;;;;;;5038481;28;19920;-88
2022/03/31 07:28:42;;;;;;;;;;;5.70;99.90;;;;;;5041393;28;19913;-88
2022/03/31 07:31:07;;;;;;;;;;;5.70;99.90;;;;;;5034566;28;19913;-88
2022/03/31 07:33:33;;;;;;;;;;;5.70;99.90;;;;;;5015390;28;19917;-88
2022/03/31 07:35:58;;;;;;;;;;;5.70;99.90;;;;;;5032590;28;19918;-87
2022/03/31 07:38:24;;;;;;;;;;;5.70;99.90;;;;;;5019728;28;19960;-88
2022/03/31 07:40:50;;;;;;;;;;;5.60;99.90;;;;;;5029420;28;20036;-87
2022/03/31 07:43:15;;;;;;;;;;;5.60;99.90;;;;;;5015685;28;19921;-88
2022/03/31 07:45:41;;;;;;;;;;;5.50;99.90;;;;;;5019672;28;19920;-88
2022/03/31 07:48:08;;;;;;;;;;;5.40;99.90;;;;;;5012147;28;20544;-89
2022/03/31 07:50:34;;;;;;;;;;;5.30;99.90;;;;;;5026153;28;19997;-88
2022/03/31 07:53:00;;;;;;;;;;;5.30;99.90;;;;;;5025612;28;19913;-88
2022/03/31 07:55:26;;;;;;;;;;;5.30;99.90;;;;;;5024144;28;19940;-88
2022/03/31 07:57:52;;;;;;;;;;;5.30;99.90;;;;;;5024102;28;20373;-88
2022/03/31 08:00:18;;;;;;;;;;;5.30;99.90;;;;;;5012367;28;19929;-88
2022/03/31 08:02:44;;;;;;;;;;;5.30;99.90;;;;;;5026222;28;20425;-88
2022/03/31 08:05:11;;;;;;;;;;;5.40;99.90;;;;;;5019339;28;20321;-88
2022/03/31 08:07:37;;;;;;;;;;;5.50;99.90;;;;;;5027110;28;19921;-88
2022/03/31 08:10:06;;;;;;;;;;;5.50;99.90;;;;;;5022267;28;20352;-88
2022/03/31 08:12:33;;;;;;;;;;;5.60;99.90;;;;;;5026336;28;19921;-88
2022/03/31 08:14:59;;;;;;;;;;;5.70;99.90;;;;;;5016984;28;19917;-88
2022/03/31 08:17:25;;;;;;;;;;;5.80;99.90;;;;;;5037231;28;20316;-88
2022/03/31 08:19:50;;;;;;;;;;;5.90;99.90;;;;;;5029484;28;20021;-88
2022/03/31 08:22:17;;;;;;;;;;;6.10;99.90;;;;;;5037949;28;19920;-89
2022/03/31 08:24:43;;;;;;;;;;;6.10;99.90;;;;;;5018860;28;19921;-88
2022/03/31 08:27:09;;;;;;;;;;;6.00;99.90;;;;;;5017061;28;19925;-88
2022/03/31 08:29:35;;;;;;;;;;;6.10;99.90;;;;;;5017282;28;19967;-88
2022/03/31 08:32:01;;;;;;;;;;;6.10;99.90;;;;;;5017427;28;20466;-89
2022/03/31 08:34:27;;;;;;;;;;;6.20;99.90;;;;;;5026132;28;19910;-88
2022/03/31 08:36:52;;;;;;;;;;;6.20;99.90;;;;;;5025203;28;19964;-88
2022/03/31 08:39:18;;;;;;;;;;;6.30;99.90;;;;;;5015501;28;19921;-88
2022/03/31 08:41:44;;;;;;;;;;;6.30;99.90;;;;;;5035858;28;20004;-89
2022/03/31 08:44:14;;;;;;;;;;;6.50;99.90;;;;;;5010728;28;20406;-89
2022/03/31 08:46:39;;;;;;;;;;;6.70;99.90;;;;;;5016738;28;19975;-88
2022/03/31 08:49:06;;;;;;;;;;;6.80;99.90;;;;;;5028421;28;19921;-89
2022/03/31 08:51:32;;;;;;;;;;;6.90;99.90;;;;;;5027010;28;20394;-88
2022/03/31 08:53:58;;;;;;;;;;;7.00;99.90;;;;;;5019409;28;19984;-88
2022/03/31 08:56:23;;;;;;;;;;;7.00;99.90;;;;;;5043302;28;20020;-88
2022/03/31 08:58:49;;;;;;;;;;;7.20;99.90;;;;;;5019910;28;19917;-88
2022/03/31 09:01:15;;;;;;;;;;;7.30;99.90;;;;;;5041567;28;20015;-88
2022/03/31 09:03:41;;;;;;;;;;;7.30;99.90;;;;;;5024112;28;19920;-88
2022/03/31 09:06:10;;;;;;;;;;;7.40;99.90;;;;;;5014797;28;19914;-88
2022/03/31 09:08:35;;;;;;;;;;;7.50;99.90;;;;;;5043335;28;19917;-88
2022/03/31 09:11:03;;;;;;;;;;;7.30;99.90;;;;;;5023157;28;19929;-88
2022/03/31 09:13:30;;;;;;;;;;;7.30;99.90;;;;;;5021891;28;19920;-88
2022/03/31 09:15:58;;;;;;;;;;;7.10;99.90;;;;;;5013276;28;20270;-88
2022/03/31 09:18:25;;;;;;;;;;;7.00;99.90;;;;;;5023207;28;20309;-88
2022/03/31 09:20:52;;;;;;;;;;;7.00;99.90;;;;;;5023905;28;20413;-88
2022/03/31 09:23:18;;;;;;;;;;;6.90;99.90;;;;;;5030745;28;20017;-88
2022/03/31 09:25:44;;;;;;;;;;;6.90;99.90;;;;;;5012272;28;20057;-88
2022/03/31 09:28:14;;;;;;;;;;;6.90;99.90;;;;;;5029421;28;20429;-87
2022/03/31 09:30:53;;;;;;;;;;;6.90;99.90;;;;;;5036054;28;19924;-88
2022/03/31 09:33:26;;;;;;;;;;;7.00;99.90;;;;;;5027210;28;20197;-88
2022/03/31 09:35:58;;;;;;;;;;;7.00;99.90;;;;;;5048537;28;19913;-88
2022/03/31 09:38:23;;;;;;;;;;;6.80;99.90;;;;;;5031951;28;19917;-88
2022/03/31 09:40:49;;;;;;;;;;;6.80;99.90;;;;;;5037385;28;20245;-88
2022/03/31 09:43:14;;;;;;;;;;;6.80;99.90;;;;;;5017910;28;19980;-88
2022/03/31 09:45:40;;;;;;;;;;;6.90;99.90;;;;;;5030703;28;19913;-87
2022/03/31 09:48:16;;;;;;;;;;;7.00;99.90;;;;;;5040592;28;20369;-87
2022/03/31 09:50:41;;;;;;;;;;;7.00;99.90;;;;;;5029541;28;19928;-88
2022/03/31 09:53:07;;;;;;;;;;;7.00;99.90;;;;;;5038511;28;20416;-88
2022/03/31 09:55:34;;;;;;;;;;;7.00;99.90;;;;;;5031370;28;19917;-88
2022/03/31 09:58:00;;;;;;;;;;;7.20;99.90;;;;;;5024297;28;19918;-88
2022/03/31 10:00:27;;;;;;;;;;;7.20;99.90;;;;;;5036067;28;19945;-88
2022/03/31 10:02:53;;;;;;;;;;;7.30;99.90;;;;;;5018708;28;19916;-87
2022/03/31 10:05:20;;;;;;;;;;;7.30;99.90;;;;;;5024361;28;19952;-88
2022/03/31 10:07:46;;;;;;;;;;;7.20;99.90;;;;;;5024447;28;19917;-88
2022/03/31 10:10:12;;;;;;;;;;;7.10;99.90;;;;;;5031529;28;20285;-87
2022/03/31 10:12:43;;;;;;;;;;;6.90;99.90;;;;;;5038117;28;19924;-89
2022/03/31 10:15:11;;;;;;;;;;;6.80;99.90;;;;;;5047664;28;19939;-87
2022/03/31 10:17:37;;;;;;;;;;;6.80;99.90;;;;;;5022643;28;19913;-88
2022/03/31 10:20:09;;;;;;;;;;;6.70;99.90;;;;;;5018403;28;19918;-88
2022/03/31 10:25:19;;;;;;;;;;;6.70;99.90;;;;;;5018991;28;20433;-88
2022/03/31 10:27:50;;;;;;;;;;;6.60;99.90;;;;;;5022945;28;20011;-88
2022/03/31 10:30:18;;;;;;;;;;;6.60;99.90;;;;;;5027281;28;19917;-88
2022/03/31 10:32:56;;;;;;;;;;;6.50;99.90;;;;;;5020664;28;19924;-87
2022/03/31 10:35:23;;;;;;;;;;;6.40;99.90;;;;;;5040564;28;20003;-88
2022/03/31 10:37:49;;;;;;;;;;;6.40;99.90;;;;;;5021492;28;19924;-88
2022/03/31 10:40:26;;;;;;;;;;;6.40;99.90;;;;;;5022066;28;20378;-88
2022/03/31 10:42:55;;;;;;;;;;;6.60;99.90;;;;;;5014827;28;20401;-88
2022/03/31 10:45:20;;;;;;;;;;;6.80;99.90;;;;;;5006196;28;19925;-88
2022/03/31 10:47:46;;;;;;;;;;;7.10;99.90;;;;;;5023809;28;19925;-88
2022/03/31 10:50:23;;;;;;;;;;;7.20;99.90;;;;;;5028839;28;20405;-88
2022/03/31 10:53:01;;;;;;;;;;;7.40;99.90;;;;;;5031895;28;19914;-89
2022/03/31 10:55:55;;;;;;;;;;;7.60;99.90;;;;;;5019820;28;19922;-88
2022/03/31 10:58:28;;;;;;;;;;;7.70;99.90;;;;;;5015362;28;19971;-88
2022/03/31 11:00:58;;;;;;;;;;;7.90;99.90;;;;;;5025152;28;19924;-88
2022/03/31 11:03:24;;;;;;;;;;;8.00;99.90;;;;;;5042841;28;19925;-88
2022/03/31 11:05:50;;;;;;;;;;;7.90;99.90;;;;;;5022982;28;19925;-88
2022/03/31 11:08:19;;;;;;;;;;;7.90;99.90;;;;;;5025670;28;19921;-89
2022/03/31 11:10:45;;;;;;;;;;;7.90;99.90;;;;;;5012595;28;20337;-88
2022/03/31 11:13:11;;;;;;;;;;;7.90;99.90;;;;;;5016489;28;19948;-88
2022/03/31 11:15:37;;;;;;;;;;;8.00;99.90;;;;;;5023181;28;19960;-88
2022/03/31 11:18:03;;;;;;;;;;;8.20;99.90;;;;;;5011446;28;19918;-87
2022/03/31 11:20:29;;;;;;;;;;;8.30;99.90;;;;;;5024009;28;19924;-88
2022/03/31 11:23:03;;;;;;;;;;;8.40;99.90;;;;;;5020743;28;19921;-88
2022/03/31 11:25:29;;;;;;;;;;;8.60;99.90;;;;;;5023570;28;20408;-88
2022/03/31 11:27:56;;;;;;;;;;;8.80;99.90;;;;;;5031153;28;19921;-87
2022/03/31 11:30:23;;;;;;;;;;;9.00;99.90;;;;;;5033970;28;19992;-88
2022/03/31 11:32:53;;;;;;;;;;;9.30;99.90;;;;;;5026382;28;20338;-88
2022/03/31 11:35:20;;;;;;;;;;;9.60;99.90;;;;;;5041558;28;19925;-89
2022/03/31 11:37:53;;;;;;;;;;;10.00;99.90;;;;;;5032058;28;20004;-88
2022/03/31 11:40:26;;;;;;;;;;;10.30;99.90;;;;;;5036522;28;19923;-89
2022/03/31 11:42:52;;;;;;;;;;;10.60;99.90;;;;;;5036627;28;19961;-89
2022/03/31 11:45:26;;;;;;;;;;;10.80;99.90;;;;;;5034747;28;19913;-89
2022/03/31 11:47:59;;;;;;;;;;;10.70;99.70;;;;;;5025158;28;19917;-88
2022/03/31 11:50:26;;;;;;;;;;;10.60;99.90;;;;;;5021788;28;19924;-89
2022/03/31 11:52:52;;;;;;;;;;;10.70;99.90;;;;;;5015973;28;19969;-89
2022/03/31 11:55:20;;;;;;;;;;;11.00;99.90;;;;;;5036632;28;20290;-88
2022/03/31 11:57:50;;;;;;;;;;;11.00;98.70;;;;;;5030288;28;19928;-88
2022/03/31 12:00:16;;;;;;;;;;;11.10;94.00;;;;;;5020677;28;19917;-89
2022/03/31 12:02:42;;;;;;;;;;;10.90;92.90;;;;;;5009692;28;20472;-88
2022/03/31 12:05:12;;;;;;;;;;;10.90;94.30;;;;;;5014687;28;19917;-88
2022/03/31 12:07:37;;;;;;;;;;;10.80;95.20;;;;;;5035051;28;19940;-88
2022/03/31 12:10:03;;;;;;;;;;;10.60;95.50;;;;;;5021569;28;20366;-88
2022/03/31 12:12:29;;;;;;;;;;;10.50;96.90;;;;;;5011079;28;19913;-88
2022/03/31 12:14:56;;;;;;;;;;;10.20;97.50;;;;;;5011946;28;19925;-88
2022/03/31 12:17:22;;;;;;;;;;;10.10;97.90;;;;;;5033605;28;20378;-88
2022/03/31 12:19:47;;;;;;;;;;;9.90;96.80;;;;;;5031126;28;19913;-89
2022/03/31 12:22:14;;;;;;;;;;;9.60;99.90;;;;;;5046144;28;20377;-88
2022/03/31 12:24:47;;;;;;;;;;;9.40;98.10;;;;;;5014489;28;19945;-90
2022/03/31 12:27:14;;;;;;;;;;;9.40;99.80;;;;;;5028253;28;19964;-89
2022/03/31 12:29:39;;;;;;;;;;;9.40;99.90;;;;;;5020121;28;19914;-89
2022/03/31 12:32:10;;;;;;;;;;;9.40;99.90;;;;;;5029478;28;19927;-89
2022/03/31 12:34:40;;;;;;;;;;;9.40;99.90;;;;;;5022150;28;19924;-89
2022/03/31 12:37:06;;;;;;;;;;;9.30;99.90;;;;;;5019929;28;19974;-88
2022/03/31 12:39:44;;;;;;;;;;;9.30;99.90;;;;;;5034397;28;19917;-88
2022/03/31 12:42:10;;;;;;;;;;;9.40;99.90;;;;;;5034357;28;19943;-89
2022/03/31 12:44:39;;;;;;;;;;;9.40;99.90;;;;;;5022396;28;20337;-89
2022/03/31 12:47:05;;;;;;;;;;;9.40;99.90;;;;;;5022090;28;19917;-89
2022/03/31 12:49:35;;;;;;;;;;;9.30;99.80;;;;;;5038119;28;19925;-88
2022/03/31 12:52:03;;;;;;;;;;;9.30;99.90;;;;;;5041598;28;19913;-88
2022/03/31 12:54:32;;;;;;;;;;;9.30;99.90;;;;;;5023908;28;20386;-89
2022/03/31 12:57:02;;;;;;;;;;;9.20;99.90;;;;;;5032864;28;20023;-89
2022/03/31 12:59:31;;;;;;;;;;;9.20;99.90;;;;;;5032752;28;19917;-89
2022/03/31 13:02:02;;;;;;;;;;;9.10;99.90;;;;;;5030896;28;19929;-89
2022/03/31 13:04:28;;;;;;;;;;;9.10;99.90;;;;;;5015842;28;19917;-90
2022/03/31 13:06:54;;;;;;;;;;;9.00;99.90;;;;;;5051288;22;19949;-83
2022/03/31 13:09:20;;;;;;;;;;;8.90;99.90;;;;;;5062771;28;20276;-83
2022/03/31 13:12:09;;;;;;;;;;;8.80;99.90;;;;;;5051907;28;19917;-83
2022/03/31 13:15:12;;;;;;;;;;;8.70;99.90;;;;;;5053194;28;20011;-84
2022/03/31 13:17:42;;;;;;;;;;;8.60;99.90;;;;;;5054883;28;19909;-83
2022/03/31 13:20:08;;;;;;;;;;;8.40;99.90;;;;;;5055027;28;19909;-83
2022/03/31 13:22:33;;;;;;;;;;;8.40;99.90;;;;;;5053922;28;19913;-84
2022/03/31 13:24:59;;;;;;;;;;;8.30;99.90;;;;;;5054939;28;20421;-84
2022/03/31 13:27:25;;;;;;;;;;;8.30;99.90;;;;;;5053450;28;19949;-83
2022/03/31 13:29:51;;;;;;;;;;;8.40;99.90;;;;;;5062559;28;19917;-84
2022/03/31 13:32:17;;;;;;;;;;;8.40;99.90;;;;;;5063201;28;20300;-83
2022/03/31 13:34:46;;;;;;;;;;;8.50;99.90;;;;;;5056523;28;19908;-84
2022/03/31 13:37:12;;;;;;;;;;;8.50;99.90;;;;;;5038192;28;19917;-84
2022/03/31 13:39:38;;;;;;;;;;;8.40;99.90;;;;;;5054677;28;19924;-83
2022/03/31 13:42:05;;;;;;;;;;;8.40;99.90;;;;;;5053173;28;19944;-83
2022/03/31 13:44:30;;;;;;;;;;;8.20;99.90;;;;;;5053985;28;19913;-84
2022/03/31 13:46:56;;;;;;;;;;;8.00;99.90;;;;;;5037339;28;19940;-84
2022/03/31 13:49:22;;;;;;;;;;;8.00;99.90;;;;;;5051903;28;20007;-83
2022/03/31 13:51:48;;;;;;;;;;;7.80;99.90;;;;;;5051654;28;19912;-83
2022/03/31 13:54:15;;;;;;;;;;;7.80;99.90;;;;;;5052742;28;19920;-83
2022/03/31 13:56:42;;;;;;;;;;;7.80;99.90;;;;;;5034829;28;20070;-83
2022/03/31 14:01:54;;;;;;;;;;;7.90;99.90;;;;;;5053001;28;19920;-83
2022/03/31 14:04:20;;;;;;;;;;;8.00;99.90;;;;;;5061386;28;19916;-83
2022/03/31 14:06:48;;;;;;;;;;;8.00;99.90;;;;;;5052494;28;19920;-83
2022/03/31 14:09:14;;;;;;;;;;;8.00;99.90;;;;;;5034564;28;19974;-83
2022/03/31 14:11:40;;;;;;;;;;;7.90;99.90;;;;;;5051585;28;19917;-83
2022/03/31 14:14:10;;;;;;;;;;;7.90;99.90;;;;;;5050856;28;19983;-83
2022/03/31 14:16:40;;;;;;;;;;;7.90;99.90;;;;;;5052395;28;19909;-83
2022/03/31 14:19:07;;;;;;;;;;;7.80;99.90;;;;;;5050319;28;20385;-83
2022/03/31 14:21:32;;;;;;;;;;;7.80;99.90;;;;;;5052098;28;20266;-83
2022/03/31 14:23:58;;;;;;;;;;;7.80;99.90;;;;;;5052691;28;19916;-83
2022/03/31 14:26:24;;;;;;;;;;;7.70;99.90;;;;;;5051256;28;20462;-83
2022/03/31 14:28:50;;;;;;;;;;;7.80;99.90;;;;;;5033653;28;19921;-83
2022/03/31 14:31:17;;;;;;;;;;;7.80;99.90;;;;;;5052211;28;20281;-83
2022/03/31 14:33:43;;;;;;;;;;;7.80;99.90;;;;;;5050799;28;19935;-83